This is the latest recevied weather packets stored in our database for station/object 9D9-WX. If no packets are shown the sender has not sent any weather packets the latest 10 day(s).
| Time | Temp. | Humidity | Pressure | Rain* | Wind** | Luminosity | Snow |
|---|---|---|---|---|---|---|---|
| 1777643109 | 5.56° C | 63% | 986.1 hPa | 0 mm | - | - | - |
| 1777642223 | 5.56° C | 63% | 986.1 hPa | 0 mm | - | - | - |
| 1777641309 | 5° C | 63% | 986.1 hPa | 0 mm | - | - | - |
| 1777640431 | 4.44° C | 63% | 986.1 hPa | 0 mm | - | - | - |
| 1777639509 | 4.44° C | 71% | 985.8 hPa | 0 mm | - | - | - |
| 1777638626 | 4.44° C | 70% | 985.8 hPa | 0 mm | - | - | - |
| 1777637709 | 3.89° C | 70% | 985.8 hPa | 0 mm | - | - | - |
| 1777636832 | 3.89° C | 70% | 985.8 hPa | 0 mm | - | - | - |
| 1777635909 | 3.89° C | 88% | 985.1 hPa | 0 mm | - | - | - |
| 1777635023 | 3.89° C | 89% | 985.2 hPa | 0 mm | - | - | - |
| 1777634109 | 2.78° C | 89% | 985.1 hPa | 0 mm | - | - | - |
| 1777633232 | 2.78° C | 89% | 985.1 hPa | 0 mm | - | - | - |
| 1777632309 | 2.78° C | 93% | 984.9 hPa | 0 mm | - | - | - |
| 1777631426 | 2.78° C | 89% | 985.5 hPa | 0 mm | - | - | - |
| 1777630509 | 3.89° C | 89% | 985.5 hPa | 0 mm | - | - | - |
| 1777629631 | 3.89° C | 89% | 985.5 hPa | 0 mm | - | - | - |
| 1777628709 | 3.89° C | 94% | 986 hPa | 0 mm | - | - | - |
| 1777627823 | 3.89° C | 89% | 985.7 hPa | 0 mm | - | - | - |
| 1777626909 | 2.78° C | 89% | 985.7 hPa | 0 mm | - | - | - |
| 1777626030 | 3.33° C | 89% | 985.7 hPa | 0 mm | - | - | - |
| 1777625109 | 3.33° C | 87% | 985.5 hPa | 0 mm | - | - | - |
| 1777624222 | 3.89° C | 88% | 985 hPa | 0 mm | - | - | - |
| 1777623309 | 3.89° C | 88% | 985.1 hPa | 0 mm | - | - | - |
| 1777622432 | 3.89° C | 88% | 985.1 hPa | 0 mm | - | - | - |
| 1777621509 | 3.89° C | 84% | 985.5 hPa | 0 mm | - | - | - |
* Rain latest hour (hover to see other rain measurements)
** Current wind speed in m/s (hover to see current wind gust speed)